sensor_id;sensor_type;location;lat;lon;timestamp;P1;durP1;ratioP1;P2;durP2;ratioP2
8088;SDS011;57635;49.194;12.104;2023-02-28T00:01:13;6.27;;;5.67;;
8088;SDS011;57635;49.194;12.104;2023-02-28T00:03:41;5.80;;;5.30;;
8088;SDS011;57635;49.194;12.104;2023-02-28T00:06:09;6.30;;;5.70;;
8088;SDS011;57635;49.194;12.104;2023-02-28T00:08:37;5.67;;;5.17;;
8088;SDS011;57635;49.194;12.104;2023-02-28T00:11:06;5.70;;;5.20;;
8088;SDS011;57635;49.194;12.104;2023-02-28T00:13:36;5.43;;;5.03;;
8088;SDS011;57635;49.194;12.104;2023-02-28T00:16:07;6.33;;;5.83;;
8088;SDS011;57635;49.194;12.104;2023-02-28T00:18:36;5.87;;;5.37;;
8088;SDS011;57635;49.194;12.104;2023-02-28T00:21:04;6.90;;;6.30;;
8088;SDS011;57635;49.194;12.104;2023-02-28T00:23:33;5.70;;;5.20;;
8088;SDS011;57635;49.194;12.104;2023-02-28T00:26:01;5.73;;;5.23;;
8088;SDS011;57635;49.194;12.104;2023-02-28T00:28:28;5.43;;;5.03;;
8088;SDS011;57635;49.194;12.104;2023-02-28T00:30:56;6.40;;;5.87;;
8088;SDS011;57635;49.194;12.104;2023-02-28T00:33:27;6.17;;;5.67;;
8088;SDS011;57635;49.194;12.104;2023-02-28T00:36:02;6.07;;;5.53;;
8088;SDS011;57635;49.194;12.104;2023-02-28T00:38:32;5.63;;;5.17;;
8088;SDS011;57635;49.194;12.104;2023-02-28T00:40:59;6.17;;;5.73;;
8088;SDS011;57635;49.194;12.104;2023-02-28T00:43:31;7.50;;;6.43;;
8088;SDS011;57635;49.194;12.104;2023-02-28T00:45:59;6.13;;;5.57;;
8088;SDS011;57635;49.194;12.104;2023-02-28T00:48:29;7.83;;;5.43;;
8088;SDS011;57635;49.194;12.104;2023-02-28T00:50:56;6.17;;;5.57;;
8088;SDS011;57635;49.194;12.104;2023-02-28T00:53:24;6.47;;;5.97;;
8088;SDS011;57635;49.194;12.104;2023-02-28T00:55:52;6.73;;;6.13;;
8088;SDS011;57635;49.194;12.104;2023-02-28T00:58:20;5.90;;;5.40;;
8088;SDS011;57635;49.194;12.104;2023-02-28T01:00:47;5.90;;;5.33;;
8088;SDS011;57635;49.194;12.104;2023-02-28T01:03:16;7.07;;;5.63;;
8088;SDS011;57635;49.194;12.104;2023-02-28T01:05:45;6.30;;;5.27;;
8088;SDS011;57635;49.194;12.104;2023-02-28T01:08:14;5.57;;;5.17;;
8088;SDS011;57635;49.194;12.104;2023-02-28T01:10:42;5.17;;;4.77;;
8088;SDS011;57635;49.194;12.104;2023-02-28T01:13:10;5.90;;;5.27;;
8088;SDS011;57635;49.194;12.104;2023-02-28T01:15:37;5.17;;;4.77;;
8088;SDS011;57635;49.194;12.104;2023-02-28T01:18:06;5.73;;;4.93;;
8088;SDS011;57635;49.194;12.104;2023-02-28T01:20:35;5.57;;;5.07;;
8088;SDS011;57635;49.194;12.104;2023-02-28T01:23:05;6.60;;;5.83;;
8088;SDS011;57635;49.194;12.104;2023-02-28T01:25:34;6.20;;;5.70;;
8088;SDS011;57635;49.194;12.104;2023-02-28T01:28:01;5.57;;;5.17;;
8088;SDS011;57635;49.194;12.104;2023-02-28T01:30:30;7.10;;;6.50;;
8088;SDS011;57635;49.194;12.104;2023-02-28T01:32:58;5.80;;;5.40;;
8088;SDS011;57635;49.194;12.104;2023-02-28T01:35:25;6.63;;;6.03;;
8088;SDS011;57635;49.194;12.104;2023-02-28T01:37:53;6.47;;;5.67;;
8088;SDS011;57635;49.194;12.104;2023-02-28T01:40:22;6.40;;;5.90;;
8088;SDS011;57635;49.194;12.104;2023-02-28T01:42:49;6.50;;;5.90;;
8088;SDS011;57635;49.194;12.104;2023-02-28T01:45:19;6.47;;;5.87;;
8088;SDS011;57635;49.194;12.104;2023-02-28T01:47:49;7.37;;;6.67;;
8088;SDS011;57635;49.194;12.104;2023-02-28T01:50:19;7.50;;;6.90;;
8088;SDS011;57635;49.194;12.104;2023-02-28T01:52:48;7.07;;;6.37;;
8088;SDS011;57635;49.194;12.104;2023-02-28T01:55:17;6.50;;;6.00;;
8088;SDS011;57635;49.194;12.104;2023-02-28T01:57:48;6.03;;;5.37;;
8088;SDS011;57635;49.194;12.104;2023-02-28T02:00:17;6.80;;;6.17;;
8088;SDS011;57635;49.194;12.104;2023-02-28T02:02:47;6.20;;;5.70;;
8088;SDS011;57635;49.194;12.104;2023-02-28T02:05:18;6.97;;;5.87;;
8088;SDS011;57635;49.194;12.104;2023-02-28T02:07:47;7.10;;;6.40;;
8088;SDS011;57635;49.194;12.104;2023-02-28T02:10:17;7.40;;;6.70;;
8088;SDS011;57635;49.194;12.104;2023-02-28T02:15:42;8.67;;;6.73;;
8088;SDS011;57635;49.194;12.104;2023-02-28T02:18:14;5.87;;;5.43;;
8088;SDS011;57635;49.194;12.104;2023-02-28T02:21:04;7.07;;;6.43;;
8088;SDS011;57635;49.194;12.104;2023-02-28T02:24:03;6.53;;;6.03;;
8088;SDS011;57635;49.194;12.104;2023-02-28T02:26:52;9.30;;;8.13;;
8088;SDS011;57635;49.194;12.104;2023-02-28T02:29:39;21.47;;;14.20;;
8088;SDS011;57635;49.194;12.104;2023-02-28T02:35:39;7.27;;;6.53;;
8088;SDS011;57635;49.194;12.104;2023-02-28T02:38:13;8.03;;;7.27;;
8088;SDS011;57635;49.194;12.104;2023-02-28T02:40:48;6.67;;;6.10;;
8088;SDS011;57635;49.194;12.104;2023-02-28T02:43:22;6.73;;;6.13;;
8088;SDS011;57635;49.194;12.104;2023-02-28T02:45:53;6.80;;;6.17;;
8088;SDS011;57635;49.194;12.104;2023-02-28T02:48:24;7.37;;;6.77;;
8088;SDS011;57635;49.194;12.104;2023-02-28T02:50:55;6.77;;;6.27;;
8088;SDS011;57635;49.194;12.104;2023-02-28T02:53:25;7.70;;;7.07;;
8088;SDS011;57635;49.194;12.104;2023-02-28T02:55:56;8.63;;;7.57;;
8088;SDS011;57635;49.194;12.104;2023-02-28T02:58:26;7.37;;;6.67;;
8088;SDS011;57635;49.194;12.104;2023-02-28T03:00:56;7.63;;;7.03;;
8088;SDS011;57635;49.194;12.104;2023-02-28T03:03:25;9.20;;;7.20;;
8088;SDS011;57635;49.194;12.104;2023-02-28T03:05:57;7.37;;;6.67;;
8088;SDS011;57635;49.194;12.104;2023-02-28T03:08:27;7.57;;;6.83;;
8088;SDS011;57635;49.194;12.104;2023-02-28T03:10:55;7.90;;;6.83;;
8088;SDS011;57635;49.194;12.104;2023-02-28T03:13:33;8.47;;;7.77;;
8088;SDS011;57635;49.194;12.104;2023-02-28T03:16:19;9.10;;;7.40;;
8088;SDS011;57635;49.194;12.104;2023-02-28T03:18:52;7.50;;;6.90;;
8088;SDS011;57635;49.194;12.104;2023-02-28T03:21:26;8.33;;;6.93;;
8088;SDS011;57635;49.194;12.104;2023-02-28T03:23:59;8.10;;;7.23;;
8088;SDS011;57635;49.194;12.104;2023-02-28T03:26:31;7.67;;;6.93;;
8088;SDS011;57635;49.194;12.104;2023-02-28T03:29:02;8.20;;;7.47;;
8088;SDS011;57635;49.194;12.104;2023-02-28T03:31:32;8.73;;;7.33;;
8088;SDS011;57635;49.194;12.104;2023-02-28T03:34:03;9.97;;;8.60;;
8088;SDS011;57635;49.194;12.104;2023-02-28T03:36:35;8.27;;;7.47;;
8088;SDS011;57635;49.194;12.104;2023-02-28T03:39:11;8.70;;;7.77;;
8088;SDS011;57635;49.194;12.104;2023-02-28T03:41:42;9.07;;;8.03;;
8088;SDS011;57635;49.194;12.104;2023-02-28T03:44:11;8.73;;;8.00;;
8088;SDS011;57635;49.194;12.104;2023-02-28T03:46:45;9.37;;;8.47;;
8088;SDS011;57635;49.194;12.104;2023-02-28T03:49:16;9.37;;;8.43;;
8088;SDS011;57635;49.194;12.104;2023-02-28T03:51:48;8.43;;;7.73;;
8088;SDS011;57635;49.194;12.104;2023-02-28T03:54:17;8.67;;;7.80;;
8088;SDS011;57635;49.194;12.104;2023-02-28T03:56:48;9.17;;;8.37;;
8088;SDS011;57635;49.194;12.104;2023-02-28T03:59:21;8.93;;;8.07;;
8088;SDS011;57635;49.194;12.104;2023-02-28T04:01:52;9.10;;;8.23;;
8088;SDS011;57635;49.194;12.104;2023-02-28T04:04:21;9.13;;;8.33;;
8088;SDS011;57635;49.194;12.104;2023-02-28T04:06:50;9.17;;;8.37;;
8088;SDS011;57635;49.194;12.104;2023-02-28T04:09:18;8.37;;;7.60;;
8088;SDS011;57635;49.194;12.104;2023-02-28T04:11:48;9.43;;;8.53;;
8088;SDS011;57635;49.194;12.104;2023-02-28T04:14:18;9.37;;;8.47;;
8088;SDS011;57635;49.194;12.104;2023-02-28T04:16:46;9.73;;;7.73;;
8088;SDS011;57635;49.194;12.104;2023-02-28T04:19:14;9.43;;;8.57;;
8088;SDS011;57635;49.194;12.104;2023-02-28T04:21:43;9.30;;;8.37;;
8088;SDS011;57635;49.194;12.104;2023-02-28T04:24:14;9.73;;;8.83;;
8088;SDS011;57635;49.194;12.104;2023-02-28T04:26:43;9.40;;;8.50;;
8088;SDS011;57635;49.194;12.104;2023-02-28T04:29:12;9.67;;;8.77;;
8088;SDS011;57635;49.194;12.104;2023-02-28T04:31:40;9.97;;;8.47;;
8088;SDS011;57635;49.194;12.104;2023-02-28T04:34:08;10.47;;;9.10;;
8088;SDS011;57635;49.194;12.104;2023-02-28T04:36:36;10.60;;;9.40;;
8088;SDS011;57635;49.194;12.104;2023-02-28T04:39:03;9.03;;;8.27;;
8088;SDS011;57635;49.194;12.104;2023-02-28T04:41:32;13.13;;;9.97;;
8088;SDS011;57635;49.194;12.104;2023-02-28T04:44:00;9.77;;;8.87;;
8088;SDS011;57635;49.194;12.104;2023-02-28T04:46:28;11.13;;;9.37;;
8088;SDS011;57635;49.194;12.104;2023-02-28T04:48:56;10.53;;;9.43;;
8088;SDS011;57635;49.194;12.104;2023-02-28T04:51:24;10.60;;;9.50;;
8088;SDS011;57635;49.194;12.104;2023-02-28T04:53:52;9.20;;;8.33;;
8088;SDS011;57635;49.194;12.104;2023-02-28T04:56:20;10.27;;;9.30;;
8088;SDS011;57635;49.194;12.104;2023-02-28T04:58:49;10.30;;;8.10;;
8088;SDS011;57635;49.194;12.104;2023-02-28T05:01:21;10.00;;;9.07;;
8088;SDS011;57635;49.194;12.104;2023-02-28T05:03:51;10.87;;;9.83;;
8088;SDS011;57635;49.194;12.104;2023-02-28T05:06:20;10.27;;;9.13;;
8088;SDS011;57635;49.194;12.104;2023-02-28T05:08:50;11.80;;;9.83;;
8088;SDS011;57635;49.194;12.104;2023-02-28T05:11:19;11.63;;;10.00;;
8088;SDS011;57635;49.194;12.104;2023-02-28T05:13:49;10.83;;;9.17;;
8088;SDS011;57635;49.194;12.104;2023-02-28T05:16:18;10.40;;;9.30;;
8088;SDS011;57635;49.194;12.104;2023-02-28T05:18:45;9.83;;;8.90;;
8088;SDS011;57635;49.194;12.104;2023-02-28T05:21:24;13.27;;;10.33;;
8088;SDS011;57635;49.194;12.104;2023-02-28T05:23:54;10.23;;;9.23;;
8088;SDS011;57635;49.194;12.104;2023-02-28T05:26:22;10.67;;;9.03;;
8088;SDS011;57635;49.194;12.104;2023-02-28T05:28:51;9.50;;;8.60;;
8088;SDS011;57635;49.194;12.104;2023-02-28T05:31:19;9.03;;;8.00;;
8088;SDS011;57635;49.194;12.104;2023-02-28T05:33:47;9.60;;;8.70;;
8088;SDS011;57635;49.194;12.104;2023-02-28T05:36:15;8.83;;;7.93;;
8088;SDS011;57635;49.194;12.104;2023-02-28T05:38:42;8.73;;;7.93;;
8088;SDS011;57635;49.194;12.104;2023-02-28T05:41:10;8.33;;;7.63;;
8088;SDS011;57635;49.194;12.104;2023-02-28T05:43:38;8.73;;;7.93;;
8088;SDS011;57635;49.194;12.104;2023-02-28T05:46:07;7.73;;;7.13;;
8088;SDS011;57635;49.194;12.104;2023-02-28T05:48:37;8.13;;;7.50;;
8088;SDS011;57635;49.194;12.104;2023-02-28T05:51:06;8.77;;;7.97;;
8088;SDS011;57635;49.194;12.104;2023-02-28T05:53:35;8.00;;;7.30;;
8088;SDS011;57635;49.194;12.104;2023-02-28T05:56:03;8.67;;;7.87;;
8088;SDS011;57635;49.194;12.104;2023-02-28T05:58:31;9.13;;;7.00;;
8088;SDS011;57635;49.194;12.104;2023-02-28T06:01:00;8.50;;;7.63;;
8088;SDS011;57635;49.194;12.104;2023-02-28T06:03:29;7.90;;;7.10;;
8088;SDS011;57635;49.194;12.104;2023-02-28T06:05:57;12.30;;;8.17;;
8088;SDS011;57635;49.194;12.104;2023-02-28T06:08:25;7.57;;;6.97;;
8088;SDS011;57635;49.194;12.104;2023-02-28T06:10:52;8.73;;;7.80;;
8088;SDS011;57635;49.194;12.104;2023-02-28T06:13:20;8.57;;;7.53;;
8088;SDS011;57635;49.194;12.104;2023-02-28T06:15:47;7.63;;;6.87;;
8088;SDS011;57635;49.194;12.104;2023-02-28T06:18:15;7.43;;;6.63;;
8088;SDS011;57635;49.194;12.104;2023-02-28T06:20:44;7.57;;;6.97;;
8088;SDS011;57635;49.194;12.104;2023-02-28T06:23:14;7.30;;;6.70;;
8088;SDS011;57635;49.194;12.104;2023-02-28T06:25:44;8.50;;;7.67;;
8088;SDS011;57635;49.194;12.104;2023-02-28T06:28:12;7.30;;;6.70;;
8088;SDS011;57635;49.194;12.104;2023-02-28T06:30:39;7.97;;;7.07;;
8088;SDS011;57635;49.194;12.104;2023-02-28T06:33:07;8.43;;;7.50;;
8088;SDS011;57635;49.194;12.104;2023-02-28T06:35:34;8.53;;;7.73;;
8088;SDS011;57635;49.194;12.104;2023-02-28T06:38:03;7.87;;;7.17;;
8088;SDS011;57635;49.194;12.104;2023-02-28T06:40:31;7.67;;;6.83;;
8088;SDS011;57635;49.194;12.104;2023-02-28T06:43:01;8.33;;;7.63;;
8088;SDS011;57635;49.194;12.104;2023-02-28T06:45:29;9.67;;;7.43;;
8088;SDS011;57635;49.194;12.104;2023-02-28T06:47:56;9.97;;;8.33;;
8088;SDS011;57635;49.194;12.104;2023-02-28T06:50:24;8.90;;;7.67;;
8088;SDS011;57635;49.194;12.104;2023-02-28T06:52:53;9.30;;;7.77;;
8088;SDS011;57635;49.194;12.104;2023-02-28T06:55:23;9.57;;;7.70;;
8088;SDS011;57635;49.194;12.104;2023-02-28T06:57:50;7.20;;;6.70;;
8088;SDS011;57635;49.194;12.104;2023-02-28T07:00:18;9.43;;;7.67;;
8088;SDS011;57635;49.194;12.104;2023-02-28T07:02:46;8.93;;;8.13;;
8088;SDS011;57635;49.194;12.104;2023-02-28T07:05:14;11.73;;;10.27;;
8088;SDS011;57635;49.194;12.104;2023-02-28T07:07:41;9.27;;;8.37;;
8088;SDS011;57635;49.194;12.104;2023-02-28T07:10:11;8.77;;;7.87;;
8088;SDS011;57635;49.194;12.104;2023-02-28T07:12:41;8.37;;;7.57;;
8088;SDS011;57635;49.194;12.104;2023-02-28T07:15:09;9.87;;;8.07;;
8088;SDS011;57635;49.194;12.104;2023-02-28T07:17:37;8.40;;;7.63;;
8088;SDS011;57635;49.194;12.104;2023-02-28T07:20:05;8.57;;;7.67;;
8088;SDS011;57635;49.194;12.104;2023-02-28T07:22:34;9.80;;;8.93;;
8088;SDS011;57635;49.194;12.104;2023-02-28T07:25:02;10.07;;;9.17;;
8088;SDS011;57635;49.194;12.104;2023-02-28T07:27:30;8.93;;;8.03;;
8088;SDS011;57635;49.194;12.104;2023-02-28T07:29:59;9.63;;;8.70;;
8088;SDS011;57635;49.194;12.104;2023-02-28T07:32:27;9.10;;;8.20;;
8088;SDS011;57635;49.194;12.104;2023-02-28T07:34:55;9.03;;;8.23;;
8088;SDS011;57635;49.194;12.104;2023-02-28T07:37:23;8.50;;;7.70;;
8088;SDS011;57635;49.194;12.104;2023-02-28T07:39:51;9.10;;;8.20;;
8088;SDS011;57635;49.194;12.104;2023-02-28T07:42:18;8.93;;;8.03;;
8088;SDS011;57635;49.194;12.104;2023-02-28T07:44:47;9.43;;;8.53;;
8088;SDS011;57635;49.194;12.104;2023-02-28T07:47:15;7.77;;;7.07;;
8088;SDS011;57635;49.194;12.104;2023-02-28T07:49:44;8.77;;;8.00;;
8088;SDS011;57635;49.194;12.104;2023-02-28T07:52:12;11.40;;;8.43;;
8088;SDS011;57635;49.194;12.104;2023-02-28T07:54:39;10.70;;;8.77;;
8088;SDS011;57635;49.194;12.104;2023-02-28T07:57:07;8.87;;;7.97;;
8088;SDS011;57635;49.194;12.104;2023-02-28T07:59:35;9.33;;;8.43;;
8088;SDS011;57635;49.194;12.104;2023-02-28T08:02:03;9.07;;;8.10;;
8088;SDS011;57635;49.194;12.104;2023-02-28T08:04:32;8.83;;;7.93;;
8088;SDS011;57635;49.194;12.104;2023-02-28T08:07:00;8.80;;;8.10;;
8088;SDS011;57635;49.194;12.104;2023-02-28T08:09:28;9.33;;;8.43;;
8088;SDS011;57635;49.194;12.104;2023-02-28T08:11:56;9.60;;;8.60;;
8088;SDS011;57635;49.194;12.104;2023-02-28T08:14:23;8.90;;;8.03;;
8088;SDS011;57635;49.194;12.104;2023-02-28T08:16:51;9.23;;;8.33;;
8088;SDS011;57635;49.194;12.104;2023-02-28T08:19:18;9.00;;;8.10;;
8088;SDS011;57635;49.194;12.104;2023-02-28T08:21:47;8.60;;;7.53;;
8088;SDS011;57635;49.194;12.104;2023-02-28T08:24:15;9.27;;;8.33;;
8088;SDS011;57635;49.194;12.104;2023-02-28T08:26:43;8.43;;;7.60;;
8088;SDS011;57635;49.194;12.104;2023-02-28T08:29:10;8.67;;;7.87;;
8088;SDS011;57635;49.194;12.104;2023-02-28T08:31:38;9.03;;;8.23;;
8088;SDS011;57635;49.194;12.104;2023-02-28T08:34:06;9.63;;;8.73;;
8088;SDS011;57635;49.194;12.104;2023-02-28T08:36:34;8.27;;;7.43;;
8088;SDS011;57635;49.194;12.104;2023-02-28T08:39:03;9.63;;;8.83;;
8088;SDS011;57635;49.194;12.104;2023-02-28T08:41:31;9.10;;;8.30;;
8088;SDS011;57635;49.194;12.104;2023-02-28T08:43:58;9.27;;;8.33;;
8088;SDS011;57635;49.194;12.104;2023-02-28T08:46:26;9.47;;;8.57;;
8088;SDS011;57635;49.194;12.104;2023-02-28T08:48:54;10.63;;;8.73;;
8088;SDS011;57635;49.194;12.104;2023-02-28T08:51:25;10.00;;;9.00;;
8088;SDS011;57635;49.194;12.104;2023-02-28T08:53:54;9.87;;;9.00;;
8088;SDS011;57635;49.194;12.104;2023-02-28T08:56:25;8.37;;;7.57;;
8088;SDS011;57635;49.194;12.104;2023-02-28T08:58:54;10.63;;;9.27;;
8088;SDS011;57635;49.194;12.104;2023-02-28T09:01:24;8.40;;;7.67;;
8088;SDS011;57635;49.194;12.104;2023-02-28T09:03:54;8.23;;;7.50;;
8088;SDS011;57635;49.194;12.104;2023-02-28T09:06:24;8.73;;;7.77;;
8088;SDS011;57635;49.194;12.104;2023-02-28T09:08:55;10.23;;;9.27;;
8088;SDS011;57635;49.194;12.104;2023-02-28T09:11:27;10.20;;;8.87;;
8088;SDS011;57635;49.194;12.104;2023-02-28T09:13:55;8.87;;;8.07;;
8088;SDS011;57635;49.194;12.104;2023-02-28T09:16:22;9.07;;;8.27;;
8088;SDS011;57635;49.194;12.104;2023-02-28T09:18:50;8.37;;;7.67;;
8088;SDS011;57635;49.194;12.104;2023-02-28T09:21:18;9.57;;;8.67;;
8088;SDS011;57635;49.194;12.104;2023-02-28T09:23:47;7.47;;;6.87;;
8088;SDS011;57635;49.194;12.104;2023-02-28T09:26:16;10.63;;;8.87;;
8088;SDS011;57635;49.194;12.104;2023-02-28T09:28:46;9.00;;;8.20;;
8088;SDS011;57635;49.194;12.104;2023-02-28T09:31:14;8.77;;;7.97;;
8088;SDS011;57635;49.194;12.104;2023-02-28T09:33:47;8.77;;;7.83;;
8088;SDS011;57635;49.194;12.104;2023-02-28T09:36:15;8.40;;;7.57;;
8088;SDS011;57635;49.194;12.104;2023-02-28T09:38:42;9.20;;;8.40;;
8088;SDS011;57635;49.194;12.104;2023-02-28T09:41:14;8.77;;;8.07;;
8088;SDS011;57635;49.194;12.104;2023-02-28T09:43:44;9.47;;;8.40;;
8088;SDS011;57635;49.194;12.104;2023-02-28T09:46:18;8.60;;;7.87;;
8088;SDS011;57635;49.194;12.104;2023-02-28T09:48:53;8.90;;;8.07;;
8088;SDS011;57635;49.194;12.104;2023-02-28T09:51:28;7.83;;;7.23;;
8088;SDS011;57635;49.194;12.104;2023-02-28T09:54:00;8.83;;;8.03;;
8088;SDS011;57635;49.194;12.104;2023-02-28T09:56:31;8.87;;;7.90;;
8088;SDS011;57635;49.194;12.104;2023-02-28T09:59:02;10.17;;;9.10;;
8088;SDS011;57635;49.194;12.104;2023-02-28T10:01:34;9.70;;;8.90;;
8088;SDS011;57635;49.194;12.104;2023-02-28T10:04:08;8.97;;;8.17;;
8088;SDS011;57635;49.194;12.104;2023-02-28T10:06:42;9.53;;;8.63;;
8088;SDS011;57635;49.194;12.104;2023-02-28T10:09:13;9.77;;;8.83;;
8088;SDS011;57635;49.194;12.104;2023-02-28T10:11:43;9.23;;;8.33;;
8088;SDS011;57635;49.194;12.104;2023-02-28T10:14:18;9.53;;;8.63;;
8088;SDS011;57635;49.194;12.104;2023-02-28T10:16:47;9.83;;;8.93;;
8088;SDS011;57635;49.194;12.104;2023-02-28T10:19:19;9.13;;;8.33;;
8088;SDS011;57635;49.194;12.104;2023-02-28T10:21:49;9.83;;;8.87;;
8088;SDS011;57635;49.194;12.104;2023-02-28T10:24:23;9.33;;;8.33;;
8088;SDS011;57635;49.194;12.104;2023-02-28T10:26:56;9.83;;;8.90;;
8088;SDS011;57635;49.194;12.104;2023-02-28T10:29:28;11.27;;;8.33;;
8088;SDS011;57635;49.194;12.104;2023-02-28T10:31:59;8.77;;;7.90;;
8088;SDS011;57635;49.194;12.104;2023-02-28T10:34:28;11.33;;;9.40;;
8088;SDS011;57635;49.194;12.104;2023-02-28T10:36:56;8.93;;;8.00;;
8088;SDS011;57635;49.194;12.104;2023-02-28T10:39:34;9.33;;;8.27;;
8088;SDS011;57635;49.194;12.104;2023-02-28T10:42:19;8.63;;;7.73;;
8088;SDS011;57635;49.194;12.104;2023-02-28T10:45:05;9.43;;;8.63;;
8088;SDS011;57635;49.194;12.104;2023-02-28T10:47:38;8.93;;;8.13;;
8088;SDS011;57635;49.194;12.104;2023-02-28T10:50:32;10.60;;;8.60;;
8088;SDS011;57635;49.194;12.104;2023-02-28T10:53:10;10.20;;;9.17;;
8088;SDS011;57635;49.194;12.104;2023-02-28T10:55:43;9.80;;;8.53;;
8088;SDS011;57635;49.194;12.104;2023-02-28T10:58:20;9.13;;;8.20;;
8088;SDS011;57635;49.194;12.104;2023-02-28T11:00:49;8.83;;;7.93;;
8088;SDS011;57635;49.194;12.104;2023-02-28T11:03:25;10.20;;;9.13;;
8088;SDS011;57635;49.194;12.104;2023-02-28T11:05:57;10.07;;;9.07;;
8088;SDS011;57635;49.194;12.104;2023-02-28T11:08:25;9.37;;;8.57;;
8088;SDS011;57635;49.194;12.104;2023-02-28T11:10:54;8.67;;;7.83;;
8088;SDS011;57635;49.194;12.104;2023-02-28T11:13:25;9.17;;;8.20;;
8088;SDS011;57635;49.194;12.104;2023-02-28T11:15:55;10.43;;;9.33;;
8088;SDS011;57635;49.194;12.104;2023-02-28T11:18:27;8.33;;;7.53;;
8088;SDS011;57635;49.194;12.104;2023-02-28T11:20:57;9.27;;;8.37;;
8088;SDS011;57635;49.194;12.104;2023-02-28T11:23:27;9.07;;;7.93;;
8088;SDS011;57635;49.194;12.104;2023-02-28T11:25:57;9.97;;;9.00;;
8088;SDS011;57635;49.194;12.104;2023-02-28T11:28:26;9.07;;;8.17;;
8088;SDS011;57635;49.194;12.104;2023-02-28T11:31:02;8.83;;;8.03;;
8088;SDS011;57635;49.194;12.104;2023-02-28T11:33:37;9.97;;;8.83;;
8088;SDS011;57635;49.194;12.104;2023-02-28T11:36:10;9.93;;;9.03;;
8088;SDS011;57635;49.194;12.104;2023-02-28T11:38:39;9.50;;;8.53;;
8088;SDS011;57635;49.194;12.104;2023-02-28T11:41:14;8.73;;;7.83;;
8088;SDS011;57635;49.194;12.104;2023-02-28T11:43:58;8.57;;;7.77;;
8088;SDS011;57635;49.194;12.104;2023-02-28T11:46:35;9.57;;;8.67;;
8088;SDS011;57635;49.194;12.104;2023-02-28T11:49:17;9.53;;;8.53;;
8088;SDS011;57635;49.194;12.104;2023-02-28T11:51:53;9.40;;;8.60;;
8088;SDS011;57635;49.194;12.104;2023-02-28T11:54:27;8.87;;;7.93;;
8088;SDS011;57635;49.194;12.104;2023-02-28T11:57:03;10.77;;;9.17;;
8088;SDS011;57635;49.194;12.104;2023-02-28T11:59:42;9.90;;;8.90;;
8088;SDS011;57635;49.194;12.104;2023-02-28T12:02:24;9.20;;;8.40;;
8088;SDS011;57635;49.194;12.104;2023-02-28T12:05:01;8.30;;;7.60;;
8088;SDS011;57635;49.194;12.104;2023-02-28T12:07:42;10.13;;;8.87;;
8088;SDS011;57635;49.194;12.104;2023-02-28T12:10:20;9.10;;;8.30;;
8088;SDS011;57635;49.194;12.104;2023-02-28T12:12:52;9.40;;;8.50;;
8088;SDS011;57635;49.194;12.104;2023-02-28T12:21:31;9.43;;;8.40;;
8088;SDS011;57635;49.194;12.104;2023-02-28T12:24:07;9.10;;;8.20;;
8088;SDS011;57635;49.194;12.104;2023-02-28T12:26:44;9.37;;;8.47;;
8088;SDS011;57635;49.194;12.104;2023-02-28T12:29:14;9.50;;;8.50;;
8088;SDS011;57635;49.194;12.104;2023-02-28T12:31:46;10.37;;;9.23;;
8088;SDS011;57635;49.194;12.104;2023-02-28T12:34:20;8.30;;;7.57;;
8088;SDS011;57635;49.194;12.104;2023-02-28T12:36:50;9.37;;;8.47;;
8088;SDS011;57635;49.194;12.104;2023-02-28T12:39:20;8.77;;;7.90;;
8088;SDS011;57635;49.194;12.104;2023-02-28T12:41:51;8.97;;;8.10;;
8088;SDS011;57635;49.194;12.104;2023-02-28T12:44:21;8.80;;;8.00;;
8088;SDS011;57635;49.194;12.104;2023-02-28T12:46:53;8.80;;;8.00;;
8088;SDS011;57635;49.194;12.104;2023-02-28T12:49:28;9.87;;;8.47;;
8088;SDS011;57635;49.194;12.104;2023-02-28T12:51:57;9.50;;;8.60;;
8088;SDS011;57635;49.194;12.104;2023-02-28T12:54:28;9.43;;;8.53;;
8088;SDS011;57635;49.194;12.104;2023-02-28T12:56:59;9.43;;;8.53;;
8088;SDS011;57635;49.194;12.104;2023-02-28T12:59:34;9.23;;;8.13;;
8088;SDS011;57635;49.194;12.104;2023-02-28T13:08:21;8.87;;;8.03;;
8088;SDS011;57635;49.194;12.104;2023-02-28T13:10:57;8.70;;;7.87;;
8088;SDS011;57635;49.194;12.104;2023-02-28T13:13:27;9.63;;;8.67;;
8088;SDS011;57635;49.194;12.104;2023-02-28T13:15:57;9.50;;;8.57;;
8088;SDS011;57635;49.194;12.104;2023-02-28T13:18:28;10.23;;;9.13;;
8088;SDS011;57635;49.194;12.104;2023-02-28T13:20:59;9.47;;;8.67;;
8088;SDS011;57635;49.194;12.104;2023-02-28T13:23:41;8.87;;;8.07;;
8088;SDS011;57635;49.194;12.104;2023-02-28T13:29:36;9.43;;;8.20;;
8088;SDS011;57635;49.194;12.104;2023-02-28T13:38:23;9.50;;;8.30;;
8088;SDS011;57635;49.194;12.104;2023-02-28T13:40:52;8.77;;;7.87;;
8088;SDS011;57635;49.194;12.104;2023-02-28T13:43:20;8.03;;;7.30;;
8088;SDS011;57635;49.194;12.104;2023-02-28T13:46:11;8.80;;;8.00;;
8088;SDS011;57635;49.194;12.104;2023-02-28T13:48:40;8.67;;;7.87;;
8088;SDS011;57635;49.194;12.104;2023-02-28T13:54:00;8.57;;;7.53;;
8088;SDS011;57635;49.194;12.104;2023-02-28T13:56:34;9.00;;;8.00;;
8088;SDS011;57635;49.194;12.104;2023-02-28T13:59:13;8.57;;;7.77;;
8088;SDS011;57635;49.194;12.104;2023-02-28T14:01:48;9.40;;;8.50;;
8088;SDS011;57635;49.194;12.104;2023-02-28T14:04:30;8.73;;;8.03;;
8088;SDS011;57635;49.194;12.104;2023-02-28T14:07:06;10.07;;;9.07;;
8088;SDS011;57635;49.194;12.104;2023-02-28T14:09:37;8.77;;;7.97;;
8088;SDS011;57635;49.194;12.104;2023-02-28T14:18:13;8.37;;;7.57;;
8088;SDS011;57635;49.194;12.104;2023-02-28T14:20:44;10.20;;;9.20;;
8088;SDS011;57635;49.194;12.104;2023-02-28T14:23:16;8.67;;;7.87;;
8088;SDS011;57635;49.194;12.104;2023-02-28T14:25:54;9.57;;;8.70;;
8088;SDS011;57635;49.194;12.104;2023-02-28T14:28:25;9.30;;;7.97;;
8088;SDS011;57635;49.194;12.104;2023-02-28T14:31:04;8.93;;;8.03;;
8088;SDS011;57635;49.194;12.104;2023-02-28T14:33:42;9.00;;;8.10;;
8088;SDS011;57635;49.194;12.104;2023-02-28T14:36:30;9.13;;;8.33;;
8088;SDS011;57635;49.194;12.104;2023-02-28T14:39:00;8.77;;;8.07;;
8088;SDS011;57635;49.194;12.104;2023-02-28T14:41:32;10.00;;;8.93;;
8088;SDS011;57635;49.194;12.104;2023-02-28T14:44:11;9.60;;;8.80;;
8088;SDS011;57635;49.194;12.104;2023-02-28T14:46:42;9.27;;;7.93;;
8088;SDS011;57635;49.194;12.104;2023-02-28T14:49:13;9.50;;;8.50;;
8088;SDS011;57635;49.194;12.104;2023-02-28T14:51:44;9.77;;;8.87;;
8088;SDS011;57635;49.194;12.104;2023-02-28T14:54:14;9.33;;;8.43;;
8088;SDS011;57635;49.194;12.104;2023-02-28T14:56:48;9.60;;;8.80;;
8088;SDS011;57635;49.194;12.104;2023-02-28T14:59:23;9.10;;;8.20;;
8088;SDS011;57635;49.194;12.104;2023-02-28T15:01:52;9.70;;;8.70;;
8088;SDS011;57635;49.194;12.104;2023-02-28T15:04:34;9.10;;;8.30;;
8088;SDS011;57635;49.194;12.104;2023-02-28T15:07:08;9.10;;;8.30;;
8088;SDS011;57635;49.194;12.104;2023-02-28T15:09:36;9.17;;;8.30;;
8088;SDS011;57635;49.194;12.104;2023-02-28T15:12:05;9.17;;;8.33;;
8088;SDS011;57635;49.194;12.104;2023-02-28T15:14:33;8.73;;;7.93;;
8088;SDS011;57635;49.194;12.104;2023-02-28T15:17:05;9.27;;;8.43;;
8088;SDS011;57635;49.194;12.104;2023-02-28T15:19:37;8.97;;;8.17;;
8088;SDS011;57635;49.194;12.104;2023-02-28T15:22:10;10.07;;;9.07;;
8088;SDS011;57635;49.194;12.104;2023-02-28T15:24:41;10.17;;;7.87;;
8088;SDS011;57635;49.194;12.104;2023-02-28T15:27:12;9.23;;;8.33;;
8088;SDS011;57635;49.194;12.104;2023-02-28T15:29:43;9.93;;;8.57;;
8088;SDS011;57635;49.194;12.104;2023-02-28T15:32:20;9.73;;;8.83;;
8088;SDS011;57635;49.194;12.104;2023-02-28T15:34:51;9.47;;;8.63;;
8088;SDS011;57635;49.194;12.104;2023-02-28T15:37:26;10.67;;;9.67;;
8088;SDS011;57635;49.194;12.104;2023-02-28T15:39:58;11.57;;;9.53;;
8088;SDS011;57635;49.194;12.104;2023-02-28T15:42:34;9.20;;;8.33;;
8088;SDS011;57635;49.194;12.104;2023-02-28T15:45:02;11.20;;;10.10;;